createdAt,value
2022-11-16T00:01:01.656Z,3.40
2022-11-16T00:03:31.587Z,3.40
2022-11-16T00:06:01.260Z,3.40
2022-11-16T00:08:30.689Z,3.40
2022-11-16T00:11:06.562Z,3.40
2022-11-16T00:13:37.367Z,3.40
2022-11-16T00:16:07.239Z,3.40
2022-11-16T00:18:36.271Z,3.40
2022-11-16T00:21:06.525Z,3.30
2022-11-16T00:23:38.545Z,3.30
2022-11-16T00:26:08.280Z,3.30
2022-11-16T00:28:38.022Z,3.30
2022-11-16T00:31:07.622Z,3.20
2022-11-16T00:33:37.088Z,3.20
2022-11-16T00:36:07.169Z,3.20
2022-11-16T00:38:36.077Z,3.10
2022-11-16T00:41:05.106Z,3.10
2022-11-16T00:43:33.975Z,3.20
2022-11-16T00:46:04.600Z,3.20
2022-11-16T00:48:33.800Z,3.20
2022-11-16T00:51:02.797Z,3.20
2022-11-16T00:53:31.469Z,3.20
2022-11-16T00:56:00.272Z,3.20
2022-11-16T00:58:30.573Z,3.30
2022-11-16T01:01:09.997Z,3.20
2022-11-16T01:03:39.401Z,3.20
2022-11-16T01:06:10.441Z,3.30
2022-11-16T01:08:40.504Z,3.20
2022-11-16T01:11:27.323Z,3.20
2022-11-16T01:13:58.012Z,3.20
2022-11-16T01:16:28.081Z,3.20
2022-11-16T01:18:56.797Z,3.20
2022-11-16T01:21:25.716Z,3.20
2022-11-16T01:23:55.879Z,3.20
2022-11-16T01:26:24.967Z,3.20
2022-11-16T01:28:53.871Z,3.10
2022-11-16T01:31:23.814Z,3.10
2022-11-16T01:33:56.037Z,3.20
2022-11-16T01:36:28.212Z,3.10
2022-11-16T01:38:59.945Z,3.10
2022-11-16T01:41:32.030Z,3.10
2022-11-16T01:44:08.736Z,3.10
2022-11-16T01:46:43.494Z,3.10
2022-11-16T01:49:21.682Z,3.00
2022-11-16T01:51:56.723Z,3.00
2022-11-16T01:54:27.056Z,3.00
2022-11-16T01:57:01.978Z,2.90
2022-11-16T01:59:56.978Z,2.90
2022-11-16T02:02:27.471Z,2.90
2022-11-16T02:04:59.043Z,2.90
2022-11-16T02:08:31.427Z,2.90
2022-11-16T02:11:20.801Z,2.90
2022-11-16T02:14:02.127Z,2.90
2022-11-16T02:16:37.153Z,2.90
2022-11-16T02:19:23.555Z,2.90
2022-11-16T02:22:03.860Z,2.80
2022-11-16T02:24:55.195Z,2.80
2022-11-16T02:28:08.336Z,2.80
2022-11-16T02:30:41.801Z,2.80
2022-11-16T02:33:13.302Z,2.80
2022-11-16T02:35:46.595Z,2.80
2022-11-16T02:38:20.231Z,2.70
2022-11-16T02:40:55.031Z,2.70
2022-11-16T02:43:33.513Z,2.70
2022-11-16T02:46:08.099Z,2.70
2022-11-16T02:48:39.848Z,2.70
2022-11-16T02:51:09.537Z,2.70
2022-11-16T02:53:42.427Z,2.70
2022-11-16T02:56:14.869Z,2.60
2022-11-16T02:58:43.825Z,2.60
2022-11-16T03:01:17.671Z,2.60
2022-11-16T03:03:53.882Z,2.60
2022-11-16T03:06:25.743Z,2.60
2022-11-16T03:09:01.782Z,2.60
2022-11-16T03:11:50.010Z,2.60
2022-11-16T03:14:22.064Z,2.60
2022-11-16T03:16:56.688Z,2.60
2022-11-16T03:19:30.997Z,2.60
2022-11-16T03:22:06.435Z,2.70
2022-11-16T03:24:37.728Z,2.70
2022-11-16T03:27:10.234Z,2.70
2022-11-16T03:29:43.765Z,2.70
2022-11-16T03:32:20.507Z,2.70
2022-11-16T03:34:57.942Z,2.70
2022-11-16T03:37:29.155Z,2.70
2022-11-16T03:40:01.392Z,2.70
2022-11-16T03:42:33.598Z,2.70
2022-11-16T03:45:03.272Z,2.70
2022-11-16T03:47:33.857Z,2.80
2022-11-16T03:50:02.661Z,2.70
2022-11-16T03:52:31.528Z,2.70
2022-11-16T03:55:00.716Z,2.70
2022-11-16T03:57:29.679Z,2.70
2022-11-16T04:00:00.996Z,2.60
2022-11-16T04:02:31.390Z,2.60
2022-11-16T04:05:22.448Z,2.60
2022-11-16T04:08:08.457Z,2.60
2022-11-16T04:11:00.491Z,2.60
2022-11-16T04:13:50.337Z,2.60
2022-11-16T04:16:36.411Z,2.60
2022-11-16T04:19:27.145Z,2.50
2022-11-16T04:22:19.304Z,2.50
2022-11-16T04:24:54.346Z,2.50
2022-11-16T04:27:48.681Z,2.50
2022-11-16T04:30:18.426Z,2.50
2022-11-16T04:33:04.674Z,2.50
2022-11-16T04:35:51.049Z,2.60
2022-11-16T04:38:21.039Z,2.60
2022-11-16T04:40:49.787Z,2.60
2022-11-16T04:43:18.034Z,2.60
2022-11-16T04:46:04.689Z,2.60
2022-11-16T04:48:39.878Z,2.60
2022-11-16T04:51:09.564Z,2.60
2022-11-16T04:53:39.650Z,2.60
2022-11-16T04:56:16.976Z,2.60
2022-11-16T04:58:46.210Z,2.50
2022-11-16T05:01:15.248Z,2.50
2022-11-16T05:03:44.597Z,2.50
2022-11-16T05:06:13.160Z,2.50
2022-11-16T05:08:43.259Z,2.50
2022-11-16T05:11:13.502Z,2.50
2022-11-16T05:13:41.980Z,2.60
2022-11-16T05:16:10.931Z,2.50
2022-11-16T05:18:39.532Z,2.50
2022-11-16T05:21:08.064Z,2.50
2022-11-16T05:23:57.645Z,2.50
2022-11-16T05:26:32.595Z,2.50
2022-11-16T05:29:01.860Z,2.50
2022-11-16T05:31:30.512Z,2.50
2022-11-16T05:33:59.209Z,2.40
2022-11-16T05:36:27.792Z,2.40
2022-11-16T05:38:57.226Z,2.40
2022-11-16T05:41:29.324Z,2.40
2022-11-16T05:44:01.662Z,2.40
2022-11-16T05:46:30.241Z,2.40
2022-11-16T05:49:01.613Z,2.40
2022-11-16T05:51:30.481Z,2.40
2022-11-16T05:54:01.501Z,2.40
2022-11-16T05:56:30.327Z,2.50
2022-11-16T05:59:01.781Z,2.40
2022-11-16T06:01:30.627Z,2.40
2022-11-16T06:04:01.235Z,2.50
2022-11-16T06:06:30.886Z,2.50
2022-11-16T06:08:59.688Z,2.50
2022-11-16T06:11:32.812Z,2.40
2022-11-16T06:14:06.993Z,2.40
2022-11-16T06:16:37.143Z,2.40
2022-11-16T06:19:09.263Z,2.40
2022-11-16T06:21:38.408Z,2.40
2022-11-16T06:24:12.011Z,2.40
2022-11-16T06:26:40.625Z,2.50
2022-11-16T06:29:10.718Z,2.50
2022-11-16T06:31:40.361Z,2.40
2022-11-16T06:34:08.822Z,2.40
2022-11-16T06:36:37.409Z,2.40
2022-11-16T06:39:06.123Z,2.40
2022-11-16T06:41:41.340Z,2.50
2022-11-16T06:44:15.217Z,2.40
2022-11-16T06:46:53.902Z,2.50
2022-11-16T06:49:22.650Z,2.50
2022-11-16T06:51:53.309Z,2.50
2022-11-16T06:54:22.081Z,2.50
2022-11-16T06:56:51.460Z,2.50
2022-11-16T06:59:23.036Z,2.50
2022-11-16T07:01:55.236Z,2.40
2022-11-16T07:04:24.664Z,2.40
2022-11-16T07:06:57.695Z,2.50
2022-11-16T07:09:26.888Z,2.50
2022-11-16T07:11:55.570Z,2.50
2022-11-16T07:14:26.426Z,2.50
2022-11-16T07:16:59.374Z,2.50
2022-11-16T07:19:30.310Z,2.50
2022-11-16T07:22:01.790Z,2.50
2022-11-16T07:24:30.599Z,2.50
2022-11-16T07:26:59.351Z,2.50
2022-11-16T07:29:31.736Z,2.40
2022-11-16T07:32:22.180Z,2.40
2022-11-16T07:35:01.807Z,2.50
2022-11-16T07:37:32.217Z,2.40
2022-11-16T07:40:01.124Z,2.40
2022-11-16T07:42:31.651Z,2.40
2022-11-16T07:45:24.457Z,2.40
2022-11-16T07:47:58.582Z,2.40
2022-11-16T07:50:49.915Z,2.50
2022-11-16T07:53:19.845Z,2.50
2022-11-16T07:55:54.671Z,2.50
2022-11-16T07:58:25.881Z,2.50
2022-11-16T08:01:06.169Z,2.50
2022-11-16T08:03:37.210Z,2.40
2022-11-16T08:06:09.612Z,2.40
2022-11-16T08:08:38.467Z,2.40
2022-11-16T08:11:10.388Z,2.50
2022-11-16T08:13:40.695Z,2.50
2022-11-16T08:16:15.283Z,2.50
2022-11-16T08:18:46.342Z,2.50
2022-11-16T08:21:18.464Z,2.50
2022-11-16T08:23:48.200Z,2.50
2022-11-16T08:26:18.450Z,2.50
2022-11-16T08:28:54.022Z,2.50
2022-11-16T08:31:31.197Z,2.50
2022-11-16T08:34:09.750Z,2.50
2022-11-16T08:36:41.999Z,2.50
2022-11-16T08:39:11.199Z,2.50
2022-11-16T08:41:42.286Z,2.50
2022-11-16T08:44:12.565Z,2.50
2022-11-16T08:46:46.667Z,2.60
2022-11-16T08:49:25.154Z,2.50
2022-11-16T08:51:54.332Z,2.50
2022-11-16T08:54:23.286Z,2.50
2022-11-16T08:56:51.823Z,2.50
2022-11-16T08:59:21.271Z,2.50
2022-11-16T09:01:54.416Z,2.50
2022-11-16T09:04:23.500Z,2.60
2022-11-16T09:06:53.133Z,2.50
2022-11-16T09:09:21.768Z,2.50
2022-11-16T09:11:54.709Z,2.50
2022-11-16T09:14:24.416Z,2.50
2022-11-16T09:16:54.195Z,2.50
2022-11-16T09:19:22.848Z,2.50
2022-11-16T09:21:51.687Z,2.50
2022-11-16T09:24:20.255Z,2.50
2022-11-16T09:26:48.888Z,2.60
2022-11-16T09:29:17.598Z,2.60
2022-11-16T09:31:47.047Z,2.60
2022-11-16T09:34:17.252Z,2.60
2022-11-16T09:36:45.978Z,2.60
2022-11-16T09:39:30.158Z,2.60
2022-11-16T09:42:21.206Z,2.60
2022-11-16T09:45:07.844Z,2.60
2022-11-16T09:47:49.310Z,2.70
2022-11-16T09:50:43.796Z,2.70
2022-11-16T09:53:33.749Z,2.80
2022-11-16T09:56:06.493Z,2.80
2022-11-16T09:58:42.004Z,2.70
2022-11-16T10:01:22.682Z,2.70
2022-11-16T10:03:55.251Z,2.70
2022-11-16T10:06:38.452Z,2.70
2022-11-16T10:09:13.418Z,2.70
2022-11-16T10:12:00.166Z,2.70
2022-11-16T10:15:07.879Z,2.70
2022-11-16T10:17:56.543Z,2.70
2022-11-16T10:20:46.739Z,2.70
2022-11-16T10:23:27.138Z,2.70
2022-11-16T10:26:02.498Z,2.70
2022-11-16T10:28:52.153Z,2.80
2022-11-16T10:31:30.880Z,2.80
2022-11-16T10:34:03.009Z,2.80
2022-11-16T10:36:37.344Z,2.80
2022-11-16T10:39:14.863Z,2.80
2022-11-16T10:41:47.449Z,2.80
2022-11-16T10:44:21.687Z,2.80
2022-11-16T10:47:01.907Z,2.90
2022-11-16T10:49:37.414Z,2.90
2022-11-16T10:52:06.332Z,2.90
2022-11-16T10:54:38.897Z,2.90
2022-11-16T10:57:14.201Z,2.90
2022-11-16T10:59:45.016Z,2.90
2022-11-16T11:02:35.731Z,3.00
2022-11-16T11:05:08.122Z,2.90
2022-11-16T11:07:40.015Z,2.90
2022-11-16T11:10:31.199Z,2.80
2022-11-16T11:13:17.776Z,2.90
2022-11-16T11:15:48.185Z,2.90
2022-11-16T11:18:27.083Z,2.90
2022-11-16T11:21:07.957Z,2.90
2022-11-16T11:23:43.778Z,3.00
2022-11-16T11:26:36.962Z,3.00
2022-11-16T11:29:18.356Z,2.90
2022-11-16T11:31:50.375Z,2.90
2022-11-16T11:34:23.010Z,2.90
2022-11-16T11:36:56.474Z,2.80
2022-11-16T11:39:34.304Z,2.90
2022-11-16T11:42:19.936Z,2.80
2022-11-16T11:44:57.197Z,2.90
2022-11-16T11:47:57.209Z,3.00
2022-11-16T11:50:33.962Z,3.00
2022-11-16T11:53:08.258Z,3.00
2022-11-16T11:55:36.880Z,2.90
2022-11-16T11:58:12.752Z,2.90
2022-11-16T12:00:49.332Z,3.00
2022-11-16T12:03:45.152Z,3.00
2022-11-16T12:06:23.843Z,3.00
2022-11-16T12:09:23.877Z,3.00
2022-11-16T12:12:10.402Z,2.90
2022-11-16T12:15:05.897Z,2.90
2022-11-16T12:17:46.152Z,2.90
2022-11-16T12:20:27.106Z,2.90
2022-11-16T12:23:19.514Z,2.90
2022-11-16T12:25:56.217Z,2.80
2022-11-16T12:28:39.260Z,2.80
2022-11-16T12:31:37.726Z,2.80
2022-11-16T12:34:15.797Z,2.90
2022-11-16T12:36:52.449Z,2.80
2022-11-16T12:39:25.084Z,2.80
2022-11-16T12:42:22.875Z,2.80
2022-11-16T12:45:19.175Z,2.80
2022-11-16T12:48:08.249Z,2.80
2022-11-16T12:50:46.708Z,2.80
2022-11-16T12:53:42.441Z,2.80
2022-11-16T12:56:19.676Z,2.80
2022-11-16T12:59:10.308Z,2.80
2022-11-16T13:01:47.795Z,2.70
2022-11-16T13:04:23.243Z,2.70
2022-11-16T13:06:57.605Z,2.70
2022-11-16T13:09:31.363Z,2.70
2022-11-16T13:12:03.980Z,2.70
2022-11-16T13:14:38.134Z,2.60
2022-11-16T13:17:08.017Z,2.70
2022-11-16T13:19:43.237Z,2.70
2022-11-16T13:22:18.475Z,2.70
2022-11-16T13:24:54.743Z,2.70
2022-11-16T13:27:32.195Z,2.70
2022-11-16T13:30:06.673Z,2.70
2022-11-16T13:32:57.447Z,2.80
2022-11-16T13:35:28.050Z,2.80
2022-11-16T13:37:56.827Z,2.70
2022-11-16T13:40:34.282Z,2.70
2022-11-16T13:43:06.191Z,2.70
2022-11-16T13:45:38.104Z,2.70
2022-11-16T13:48:18.666Z,2.70
2022-11-16T13:50:56.263Z,2.70
2022-11-16T13:56:25.561Z,2.70
2022-11-16T13:58:56.389Z,2.70
2022-11-16T14:01:26.743Z,2.70
2022-11-16T14:04:34.212Z,2.70
2022-11-16T14:07:04.368Z,2.70
2022-11-16T14:09:49.442Z,2.70
2022-11-16T14:12:59.823Z,2.70
2022-11-16T14:15:31.898Z,2.70
2022-11-16T14:18:03.639Z,2.60
2022-11-16T14:20:41.149Z,2.60
2022-11-16T14:23:27.969Z,2.50
2022-11-16T14:26:03.973Z,2.50
2022-11-16T14:28:52.280Z,2.40
2022-11-16T14:31:25.364Z,2.50
2022-11-16T14:33:56.619Z,2.50
2022-11-16T14:36:41.329Z,2.50
2022-11-16T14:39:29.583Z,2.50
2022-11-16T14:42:01.677Z,2.50
2022-11-16T14:44:35.152Z,2.50
2022-11-16T14:47:05.208Z,2.50
2022-11-16T14:49:36.928Z,2.40
2022-11-16T14:52:08.480Z,2.40
2022-11-16T14:54:42.786Z,2.30
2022-11-16T14:57:19.012Z,2.30
2022-11-16T14:59:47.704Z,2.30
2022-11-16T15:02:22.124Z,2.30
2022-11-16T15:04:52.721Z,2.30
2022-11-16T15:07:25.289Z,2.30
2022-11-16T15:09:58.612Z,2.30
2022-11-16T15:12:51.522Z,2.20
2022-11-16T15:15:23.539Z,2.20
2022-11-16T15:18:07.291Z,2.20
2022-11-16T15:20:38.758Z,2.30
2022-11-16T15:23:15.884Z,2.30
2022-11-16T15:25:47.976Z,2.30
2022-11-16T15:28:21.015Z,2.30
2022-11-16T15:30:53.011Z,2.30
2022-11-16T15:33:25.907Z,2.30
2022-11-16T15:35:55.572Z,2.30
2022-11-16T15:38:26.004Z,2.30
2022-11-16T15:40:57.698Z,2.30
2022-11-16T15:43:30.022Z,2.30
2022-11-16T15:46:00.179Z,2.30
2022-11-16T15:48:30.175Z,2.40
2022-11-16T15:51:06.632Z,2.40
2022-11-16T15:53:38.028Z,2.40
2022-11-16T15:56:13.518Z,2.40
2022-11-16T15:58:43.590Z,2.40
2022-11-16T16:01:14.224Z,2.30
2022-11-16T16:03:52.457Z,2.30
2022-11-16T16:06:45.916Z,2.30
2022-11-16T16:09:22.477Z,2.30
2022-11-16T16:11:53.122Z,2.20
2022-11-16T16:14:27.075Z,2.20
2022-11-16T16:16:58.175Z,2.20
2022-11-16T16:19:38.103Z,2.20
2022-11-16T16:22:13.331Z,2.20
2022-11-16T16:24:44.357Z,2.20
2022-11-16T16:27:17.393Z,2.10
2022-11-16T16:29:46.467Z,2.10
2022-11-16T16:32:22.218Z,2.10
2022-11-16T16:34:50.839Z,2.10
2022-11-16T16:37:20.240Z,2.20
2022-11-16T16:39:48.916Z,2.10
2022-11-16T16:42:19.465Z,2.10
2022-11-16T16:44:50.189Z,2.20
2022-11-16T16:47:20.859Z,2.20
2022-11-16T16:49:49.816Z,2.20
2022-11-16T16:52:19.181Z,2.20
2022-11-16T16:54:47.924Z,2.20
2022-11-16T16:57:17.612Z,2.20
2022-11-16T16:59:48.597Z,2.20
2022-11-16T17:02:17.905Z,2.20
2022-11-16T17:04:48.585Z,2.10
2022-11-16T17:07:17.400Z,2.20
2022-11-16T17:09:46.216Z,2.20
2022-11-16T17:12:16.902Z,2.20
2022-11-16T17:14:51.437Z,2.20
2022-11-16T17:17:22.164Z,2.20
2022-11-16T17:19:50.793Z,2.20
2022-11-16T17:22:19.726Z,2.20
2022-11-16T17:24:48.654Z,2.20
2022-11-16T17:27:17.245Z,2.20
2022-11-16T17:29:45.934Z,2.20
2022-11-16T17:32:14.676Z,2.20
2022-11-16T17:34:44.984Z,2.20
2022-11-16T17:37:14.141Z,2.20
2022-11-16T17:39:43.121Z,2.10
2022-11-16T17:42:11.831Z,2.10
2022-11-16T17:44:40.460Z,2.10
2022-11-16T17:47:09.255Z,2.10
2022-11-16T17:49:38.020Z,2.10
2022-11-16T17:52:08.175Z,2.10
2022-11-16T17:54:36.759Z,2.10
2022-11-16T17:57:05.454Z,2.10
2022-11-16T17:59:35.088Z,2.10
2022-11-16T18:02:03.710Z,2.10
2022-11-16T18:04:32.306Z,2.10
2022-11-16T18:07:01.432Z,2.10
2022-11-16T18:09:31.636Z,2.10
2022-11-16T18:12:00.242Z,2.10
2022-11-16T18:14:28.850Z,2.10
2022-11-16T18:16:57.384Z,2.00
2022-11-16T18:19:26.057Z,2.10
2022-11-16T18:21:54.530Z,2.00
2022-11-16T18:24:23.180Z,2.10
2022-11-16T18:26:53.203Z,2.10
2022-11-16T18:29:22.365Z,2.00
2022-11-16T18:31:51.033Z,2.10
2022-11-16T18:34:19.605Z,2.00
2022-11-16T18:36:50.890Z,2.00
2022-11-16T18:39:20.587Z,2.00
2022-11-16T18:41:54.710Z,2.00
2022-11-16T18:44:25.393Z,2.00
2022-11-16T18:46:54.058Z,2.00
2022-11-16T18:51:51.766Z,2.00
2022-11-16T18:54:20.305Z,2.00
2022-11-16T18:56:49.070Z,1.90
2022-11-16T18:59:17.940Z,1.90
2022-11-16T19:01:47.954Z,1.80
2022-11-16T19:04:16.746Z,1.90
2022-11-16T19:06:45.318Z,1.90
2022-11-16T19:09:16.056Z,1.90
2022-11-16T19:11:44.846Z,1.90
2022-11-16T19:14:13.542Z,1.80
2022-11-16T19:16:52.531Z,1.80
2022-11-16T19:19:27.806Z,1.80
2022-11-16T19:21:57.413Z,1.80
2022-11-16T19:24:25.975Z,1.80
2022-11-16T19:26:54.513Z,1.80
2022-11-16T19:29:23.166Z,1.70
2022-11-16T19:31:51.904Z,1.70
2022-11-16T19:34:20.473Z,1.60
2022-11-16T19:36:50.400Z,1.60
2022-11-16T19:39:19.096Z,1.60
2022-11-16T19:41:47.607Z,1.60
2022-11-16T19:44:16.215Z,1.50
2022-11-16T19:46:45.132Z,1.50
2022-11-16T19:49:19.929Z,1.50
2022-11-16T19:51:51.024Z,1.40
2022-11-16T19:54:19.846Z,1.40
2022-11-16T19:56:54.735Z,1.40
2022-11-16T19:59:23.664Z,1.40
2022-11-16T20:01:52.209Z,1.40
2022-11-16T20:04:20.834Z,1.40
2022-11-16T20:06:50.904Z,1.40
2022-11-16T20:09:19.670Z,1.40
2022-11-16T20:11:48.386Z,1.30
2022-11-16T20:14:16.963Z,1.30
2022-11-16T20:16:50.428Z,1.30
2022-11-16T20:19:20.662Z,1.30
2022-11-16T20:21:51.223Z,1.30
2022-11-16T20:24:19.922Z,1.20
2022-11-16T20:26:49.965Z,1.20
2022-11-16T20:29:20.165Z,1.30
2022-11-16T20:31:49.062Z,1.30
2022-11-16T20:34:20.460Z,1.30
2022-11-16T20:36:51.846Z,1.30
2022-11-16T20:39:22.729Z,1.40
2022-11-16T20:41:51.336Z,1.40
2022-11-16T20:44:22.384Z,1.40
2022-11-16T20:46:53.061Z,1.40
2022-11-16T20:49:21.848Z,1.30
2022-11-16T20:51:52.923Z,1.30
2022-11-16T20:54:21.619Z,1.30
2022-11-16T20:56:50.705Z,1.20
2022-11-16T20:59:20.223Z,1.30
2022-11-16T21:01:49.016Z,1.20
2022-11-16T21:04:21.936Z,1.10
2022-11-16T21:07:00.377Z,1.10
2022-11-16T21:09:49.449Z,1.00
2022-11-16T21:12:40.080Z,1.00
2022-11-16T21:15:11.861Z,1.10
2022-11-16T21:17:40.405Z,1.10
2022-11-16T21:20:26.890Z,1.10
2022-11-16T21:22:57.846Z,1.10
2022-11-16T21:25:26.518Z,1.10
2022-11-16T21:27:55.668Z,1.10
2022-11-16T21:30:30.206Z,1.10
2022-11-16T21:32:58.980Z,1.10
2022-11-16T21:35:27.497Z,1.10
2022-11-16T21:37:57.509Z,1.20
2022-11-16T21:40:26.264Z,1.20
2022-11-16T21:42:54.776Z,1.30
2022-11-16T21:45:23.344Z,1.30
2022-11-16T21:47:52.255Z,1.30
2022-11-16T21:50:36.288Z,1.30
2022-11-16T21:53:06.907Z,1.20
2022-11-16T21:55:35.753Z,1.20
2022-11-16T21:58:04.740Z,1.20
2022-11-16T22:00:33.567Z,1.30
2022-11-16T22:03:02.566Z,1.30
2022-11-16T22:05:48.622Z,1.30
2022-11-16T22:08:18.649Z,1.20
2022-11-16T22:10:52.243Z,1.20
2022-11-16T22:13:21.335Z,1.10
2022-11-16T22:15:50.036Z,1.10
2022-11-16T22:18:18.617Z,1.10
2022-11-16T22:20:49.088Z,1.10
2022-11-16T22:23:22.834Z,1.00
2022-11-16T22:25:53.031Z,0.90
2022-11-16T22:28:22.106Z,0.90
2022-11-16T22:30:52.229Z,0.90
2022-11-16T22:33:21.671Z,0.90
2022-11-16T22:35:50.346Z,0.90
2022-11-16T22:38:21.444Z,0.90
2022-11-16T22:40:51.980Z,1.00
2022-11-16T22:43:20.945Z,1.00
2022-11-16T22:45:49.471Z,1.00
2022-11-16T22:48:18.074Z,1.00
2022-11-16T22:50:46.758Z,1.00
2022-11-16T22:53:16.310Z,1.00
2022-11-16T22:55:46.407Z,0.90
2022-11-16T22:58:15.042Z,0.80
2022-11-16T23:00:43.808Z,0.70
2022-11-16T23:03:12.737Z,0.80
2022-11-16T23:05:41.271Z,0.70
2022-11-16T23:08:09.809Z,0.70
2022-11-16T23:10:58.559Z,0.70
2022-11-16T23:13:45.939Z,0.70
2022-11-16T23:16:14.551Z,0.60
2022-11-16T23:18:43.109Z,0.60
2022-11-16T23:21:25.513Z,0.50
2022-11-16T23:24:20.050Z,0.60
2022-11-16T23:27:06.007Z,0.50
2022-11-16T23:29:36.239Z,0.50
2022-11-16T23:32:05.008Z,0.50
2022-11-16T23:34:33.578Z,0.50
2022-11-16T23:37:04.516Z,0.60
2022-11-16T23:39:33.549Z,0.60
2022-11-16T23:42:19.736Z,0.60
2022-11-16T23:44:49.963Z,0.60
2022-11-16T23:47:18.669Z,0.70
2022-11-16T23:49:47.379Z,0.60
2022-11-16T23:52:16.073Z,0.70
2022-11-16T23:54:44.610Z,0.60
2022-11-16T23:57:13.343Z,0.60
2022-11-16T23:59:42.029Z,0.50
